Time;durP1;ratioP1;P1;durP2;ratioP2;P2;SDS_P1;SDS_P2;PMS_P1;PMS_P2;Temp;Humidity;BMP_temperature;BMP_pressure;BME280_temperature;BME280_humidity;BME280_pressure;Samples;Min_cycle;Max_cycle;Signal;HPM_P1;HPM_P2
2021/09/07 00:01:23;;;;;;;17.58;11.13;;;14.50;99.90;;;;;;6153643;23;20116;-65
2021/09/07 00:03:48;;;;;;;10.98;9.95;;;14.50;99.90;;;;;;6153429;23;20084;-65
2021/09/07 00:06:16;;;;;;;15.82;10.35;;;14.50;99.90;;;;;;6127138;23;20449;-65
2021/09/07 00:08:41;;;;;;;11.60;10.40;;;14.50;99.90;;;;;;6153418;23;20101;-65
2021/09/07 00:11:07;;;;;;;13.80;9.98;;;14.60;99.90;;;;;;6126970;23;20045;-65
2021/09/07 00:13:33;;;;;;;12.02;9.68;;;14.60;99.90;;;;;;6153379;23;20025;-65
2021/09/07 00:15:58;;;;;;;11.82;10.02;;;14.60;99.90;;;;;;6153338;23;20010;-65
2021/09/07 00:18:24;;;;;;;11.98;10.77;;;14.60;99.90;;;;;;6153338;23;20377;-65
2021/09/07 00:20:49;;;;;;;13.73;11.25;;;14.60;99.90;;;;;;6153470;23;20016;-65
2021/09/07 00:23:15;;;;;;;13.07;11.70;;;14.60;99.90;;;;;;6153088;23;20329;-65
2021/09/07 00:25:40;;;;;;;13.50;11.27;;;14.60;99.90;;;;;;6126686;23;20176;-65
2021/09/07 00:28:06;;;;;;;12.93;11.23;;;14.60;99.90;;;;;;6153376;23;20144;-65
2021/09/07 00:30:32;;;;;;;12.30;11.02;;;14.70;99.90;;;;;;6152926;23;20140;-65
2021/09/07 00:32:57;;;;;;;11.77;9.93;;;14.60;99.90;;;;;;6153058;23;20067;-65
2021/09/07 00:35:24;;;;;;;15.18;13.07;;;14.70;99.90;;;;;;6153030;23;20014;-65
2021/09/07 00:37:50;;;;;;;17.35;13.98;;;14.60;99.90;;;;;;6102351;23;20129;-65
2021/09/07 00:40:16;;;;;;;15.50;13.68;;;14.60;99.90;;;;;;6126371;23;20048;-65
2021/09/07 00:42:42;;;;;;;12.60;11.30;;;14.60;99.90;;;;;;6152882;23;20025;-65
2021/09/07 00:45:12;;;;;;;13.38;12.00;;;14.60;99.90;;;;;;6153109;23;20014;-65
2021/09/07 00:47:42;;;;;;;15.90;12.48;;;14.70;99.90;;;;;;6153166;23;20014;-65
2021/09/07 00:50:09;;;;;;;14.60;13.10;;;14.70;99.90;;;;;;6152940;23;20014;-65
2021/09/07 00:52:36;;;;;;;14.85;12.32;;;14.70;99.90;;;;;;6152764;23;20064;-65
2021/09/07 00:55:02;;;;;;;17.33;14.57;;;14.70;99.90;;;;;;6126428;23;20027;-65
2021/09/07 00:57:29;;;;;;;14.30;12.77;;;14.70;99.90;;;;;;6126678;23;20181;-65
2021/09/07 00:59:55;;;;;;;14.38;12.90;;;14.80;99.90;;;;;;6152987;23;20327;-65
2021/09/07 01:02:21;;;;;;;14.60;11.10;;;14.80;99.90;;;;;;6152741;23;20013;-65
2021/09/07 01:04:48;;;;;;;12.07;10.73;;;14.90;99.90;;;;;;6152825;23;20010;-65
2021/09/07 01:07:14;;;;;;;13.20;11.25;;;14.90;99.90;;;;;;6152666;23;20010;-65
2021/09/07 01:09:40;;;;;;;12.95;11.45;;;14.90;99.90;;;;;;6152884;23;20071;-65
2021/09/07 01:12:09;;;;;;;13.55;10.68;;;14.90;99.90;;;;;;6101970;23;20013;-65
2021/09/07 01:14:37;;;;;;;13.63;11.65;;;14.90;99.90;;;;;;6126330;23;20036;-65
2021/09/07 01:17:12;;;;;;;15.65;13.00;;;14.90;99.90;;;;;;6153113;23;20013;-65
2021/09/07 01:19:38;;;;;;;14.80;12.85;;;14.90;99.90;;;;;;6126171;23;20013;-65
2021/09/07 01:22:04;;;;;;;14.48;11.98;;;15.00;99.90;;;;;;6152809;23;20012;-65
2021/09/07 01:24:29;;;;;;;15.52;12.30;;;15.00;99.90;;;;;;6126291;23;20405;-65
2021/09/07 01:26:55;;;;;;;15.88;12.80;;;15.00;99.90;;;;;;6126469;23;20021;-65
2021/09/07 01:29:21;;;;;;;14.68;13.07;;;15.00;99.90;;;;;;6152878;23;20419;-65
2021/09/07 01:31:47;;;;;;;14.85;13.00;;;15.00;99.90;;;;;;6152660;23;20129;-65
2021/09/07 01:34:20;;;;;;;16.65;14.00;;;15.00;99.90;;;;;;6152852;23;20018;-65
2021/09/07 01:36:46;;;;;;;14.93;13.38;;;15.00;99.90;;;;;;6152198;23;20476;-65
2021/09/07 01:39:12;;;;;;;17.70;15.88;;;15.00;99.90;;;;;;6126229;23;20014;-65
2021/09/07 01:41:38;;;;;;;18.30;16.17;;;15.00;99.90;;;;;;6153024;23;20425;-65
2021/09/07 01:44:03;;;;;;;17.98;16.08;;;15.00;99.90;;;;;;6101951;23;20045;-65
2021/09/07 01:46:29;;;;;;;18.30;15.45;;;14.90;99.90;;;;;;6152665;23;20056;-65
2021/09/07 01:48:54;;;;;;;17.00;14.68;;;14.90;99.90;;;;;;6152329;23;20040;-65
2021/09/07 01:51:20;;;;;;;15.95;14.25;;;14.90;99.90;;;;;;6126310;23;20024;-65
2021/09/07 01:53:46;;;;;;;16.48;14.77;;;15.00;99.90;;;;;;6152306;23;20013;-65
2021/09/07 01:56:11;;;;;;;17.55;14.80;;;15.00;99.90;;;;;;6126018;23;20085;-65
2021/09/07 01:58:37;;;;;;;16.52;14.82;;;15.00;99.90;;;;;;6152730;23;20024;-65
2021/09/07 02:01:02;;;;;;;16.73;14.63;;;15.00;99.90;;;;;;6126058;23;20208;-65
2021/09/07 02:03:28;;;;;;;17.35;15.20;;;15.00;99.90;;;;;;6126649;23;20053;-65
2021/09/07 02:05:53;;;;;;;16.10;14.40;;;15.00;99.90;;;;;;6152023;23;20438;-65
2021/09/07 02:08:19;;;;;;;17.67;14.23;;;15.00;99.90;;;;;;6126125;23;20056;-65
2021/09/07 02:10:44;;;;;;;17.17;14.88;;;15.00;99.90;;;;;;6152614;23;20378;-65
2021/09/07 02:13:10;;;;;;;17.25;15.45;;;15.00;99.90;;;;;;6152580;23;20014;-65
2021/09/07 02:15:35;;;;;;;18.35;16.27;;;15.00;99.90;;;;;;6125969;23;20044;-65
2021/09/07 02:18:01;;;;;;;17.98;15.43;;;15.00;99.90;;;;;;6152557;23;20028;-65
2021/09/07 02:20:27;;;;;;;16.27;14.68;;;15.00;99.90;;;;;;6152486;23;20339;-66
2021/09/07 02:22:52;;;;;;;17.05;15.27;;;15.00;99.90;;;;;;6126222;23;20072;-68
2021/09/07 02:25:18;;;;;;;17.05;15.18;;;15.00;99.90;;;;;;6126100;23;20021;-68
2021/09/07 02:27:43;;;;;;;17.98;16.05;;;15.00;99.90;;;;;;6126364;23;20333;-68
2021/09/07 02:30:10;;;;;;;16.35;14.68;;;15.00;99.90;;;;;;6152507;23;20115;-68
2021/09/07 02:32:35;;;;;;;16.27;14.50;;;15.00;99.90;;;;;;6152096;23;20022;-68
2021/09/07 02:35:01;;;;;;;17.77;14.13;;;15.00;99.90;;;;;;6152431;23;20396;-68
2021/09/07 02:37:26;;;;;;;16.83;15.07;;;15.00;99.90;;;;;;6152366;23;20036;-69
2021/09/07 02:39:52;;;;;;;16.25;14.50;;;15.10;99.90;;;;;;6126075;23;20009;-68
2021/09/07 02:42:18;;;;;;;16.63;14.88;;;15.10;99.90;;;;;;6152305;23;20010;-68
2021/09/07 02:44:43;;;;;;;17.10;15.23;;;15.10;99.90;;;;;;6126042;23;20013;-68
2021/09/07 02:47:09;;;;;;;15.52;13.68;;;15.00;99.90;;;;;;6152053;23;20132;-68
2021/09/07 02:49:35;;;;;;;17.42;15.60;;;15.00;99.90;;;;;;6152720;23;20021;-68
2021/09/07 02:52:00;;;;;;;17.33;15.18;;;15.10;99.90;;;;;;6152378;23;20009;-68
2021/09/07 02:54:26;;;;;;;16.15;14.45;;;15.00;99.90;;;;;;6152507;23;20337;-68
2021/09/07 02:56:51;;;;;;;17.52;14.43;;;15.00;99.90;;;;;;6125920;23;20341;-69
2021/09/07 02:59:17;;;;;;;16.80;14.98;;;15.00;99.90;;;;;;6126158;23;20014;-68
2021/09/07 03:01:43;;;;;;;17.15;15.05;;;15.00;99.90;;;;;;6152356;23;20017;-68
2021/09/07 03:04:08;;;;;;;17.48;15.60;;;15.00;99.90;;;;;;6126358;23;20088;-68
2021/09/07 03:06:34;;;;;;;16.70;14.88;;;15.10;99.90;;;;;;6154039;23;20017;-68
2021/09/07 03:08:59;;;;;;;15.68;14.05;;;15.00;99.90;;;;;;6128042;23;20548;-68
2021/09/07 03:11:25;;;;;;;16.70;14.90;;;15.00;99.90;;;;;;6127492;23;20040;-68
2021/09/07 03:13:51;;;;;;;17.27;15.57;;;15.00;99.90;;;;;;6152138;23;20121;-68
2021/09/07 03:16:16;;;;;;;17.45;15.63;;;15.00;99.90;;;;;;6127554;23;20045;-68
2021/09/07 03:18:42;;;;;;;15.77;14.18;;;15.00;99.90;;;;;;6127358;23;20033;-68
2021/09/07 03:21:07;;;;;;;17.00;14.95;;;15.00;99.90;;;;;;6127324;23;20024;-68
2021/09/07 03:23:33;;;;;;;16.63;14.82;;;15.00;99.90;;;;;;6127394;23;20036;-68
2021/09/07 03:25:59;;;;;;;16.92;15.13;;;15.00;99.90;;;;;;6127769;23;20017;-68
2021/09/07 03:28:24;;;;;;;16.92;15.25;;;15.00;99.90;;;;;;6127641;23;20017;-68
2021/09/07 03:30:51;;;;;;;16.00;14.27;;;15.00;99.90;;;;;;6127394;23;20185;-68
2021/09/07 03:33:17;;;;;;;15.60;13.82;;;15.00;99.90;;;;;;6151872;23;20022;-68
2021/09/07 03:35:43;;;;;;;16.95;14.55;;;15.00;99.90;;;;;;6153417;23;20009;-68
2021/09/07 03:38:09;;;;;;;15.88;14.23;;;15.00;99.90;;;;;;6153711;23;20076;-68
2021/09/07 03:40:34;;;;;;;16.60;14.80;;;15.00;99.90;;;;;;6153809;23;20453;-68
2021/09/07 03:43:00;;;;;;;16.00;14.25;;;15.10;99.90;;;;;;6127102;23;20036;-68
2021/09/07 03:45:26;;;;;;;17.15;13.85;;;15.10;99.90;;;;;;6102946;23;20077;-68
2021/09/07 03:47:51;;;;;;;15.95;13.13;;;15.00;99.90;;;;;;6153663;23;20385;-68
2021/09/07 03:50:17;;;;;;;15.48;13.85;;;15.10;99.90;;;;;;6153695;23;20373;-68
2021/09/07 03:52:43;;;;;;;16.77;15.02;;;15.10;99.90;;;;;;6153360;23;20061;-68
2021/09/07 03:55:09;;;;;;;16.27;14.23;;;15.10;99.90;;;;;;6127198;23;20084;-68
2021/09/07 03:57:35;;;;;;;17.23;15.13;;;15.10;99.90;;;;;;6153764;23;20013;-68
2021/09/07 04:00:00;;;;;;;15.57;14.05;;;15.10;99.90;;;;;;6127210;23;20013;-68
2021/09/07 04:02:27;;;;;;;15.95;14.35;;;15.00;99.90;;;;;;6153497;23;20037;-68
2021/09/07 04:04:53;;;;;;;16.00;14.15;;;15.10;99.90;;;;;;6127087;23;20788;-68
2021/09/07 04:07:19;;;;;;;21.63;14.77;;;15.10;99.90;;;;;;6102650;23;20010;-68
2021/09/07 04:09:45;;;;;;;15.90;14.07;;;15.10;99.90;;;;;;6153116;23;20020;-68
2021/09/07 04:12:11;;;;;;;16.88;14.15;;;15.10;99.90;;;;;;6153901;23;20013;-68
2021/09/07 04:14:36;;;;;;;18.83;14.93;;;15.10;99.90;;;;;;6152784;23;20021;-68
2021/09/07 04:17:04;;;;;;;17.80;15.50;;;15.10;99.90;;;;;;6126767;23;20014;-68
2021/09/07 04:19:30;;;;;;;17.00;14.02;;;15.10;99.90;;;;;;6153372;23;20097;-68
2021/09/07 04:21:56;;;;;;;17.40;14.95;;;15.10;99.90;;;;;;6115803;23;20021;-68
2021/09/07 04:24:21;;;;;;;17.58;14.15;;;15.10;99.90;;;;;;6123807;23;20018;-68
2021/09/07 04:26:47;;;;;;;16.67;14.85;;;15.20;99.90;;;;;;6097626;23;20014;-69
2021/09/07 04:29:12;;;;;;;16.60;14.85;;;15.10;99.90;;;;;;6123450;23;20056;-68
2021/09/07 04:31:38;;;;;;;14.57;13.05;;;15.10;99.90;;;;;;6123887;23;20014;-68
2021/09/07 04:34:03;;;;;;;15.38;13.77;;;15.10;99.90;;;;;;6097373;23;20014;-68
2021/09/07 04:36:29;;;;;;;15.85;14.02;;;15.10;99.90;;;;;;6097625;23;20338;-68
2021/09/07 04:38:55;;;;;;;16.25;14.30;;;15.10;99.90;;;;;;6097938;23;20069;-68
2021/09/07 04:41:20;;;;;;;17.25;15.00;;;15.10;99.90;;;;;;6123563;23;20018;-68
2021/09/07 04:43:46;;;;;;;17.63;15.70;;;15.10;99.90;;;;;;6073346;23;20014;-68
2021/09/07 04:46:12;;;;;;;16.75;14.98;;;15.10;99.90;;;;;;6123733;23;20036;-68
2021/09/07 04:48:37;;;;;;;16.25;14.52;;;15.10;99.90;;;;;;6097344;23;20022;-68
2021/09/07 04:51:03;;;;;;;16.00;13.85;;;15.10;99.90;;;;;;6097265;23;20014;-68
2021/09/07 04:53:29;;;;;;;16.15;14.32;;;15.10;99.90;;;;;;6123546;23;20077;-68
2021/09/07 04:55:54;;;;;;;18.25;14.40;;;15.10;99.90;;;;;;6123512;23;20021;-68
2021/09/07 04:58:20;;;;;;;17.58;14.10;;;15.10;99.90;;;;;;6097146;23;20017;-68
2021/09/07 05:00:46;;;;;;;16.65;14.82;;;15.10;99.90;;;;;;6073030;23;20076;-68
2021/09/07 05:03:11;;;;;;;16.25;14.50;;;15.10;99.90;;;;;;6097105;23;20394;-68
2021/09/07 05:05:37;;;;;;;15.75;13.73;;;15.10;99.90;;;;;;6123348;23;20331;-68
2021/09/07 05:08:03;;;;;;;16.58;14.52;;;15.10;99.90;;;;;;6123021;23;20021;-69
2021/09/07 05:10:28;;;;;;;15.93;14.18;;;15.10;99.90;;;;;;6096712;23;20013;-68
2021/09/07 05:12:54;;;;;;;18.23;14.63;;;15.10;99.90;;;;;;6123066;23;20024;-68
2021/09/07 05:15:20;;;;;;;15.60;13.60;;;15.10;99.90;;;;;;6072388;23;20018;-68
2021/09/07 05:17:45;;;;;;;15.68;14.07;;;15.20;99.90;;;;;;6097005;23;20022;-68
2021/09/07 05:20:12;;;;;;;15.82;14.05;;;15.10;99.90;;;;;;6096982;23;20053;-68
2021/09/07 05:22:38;;;;;;;16.02;14.32;;;15.20;99.90;;;;;;6096801;23;20010;-68
2021/09/07 05:25:05;;;;;;;16.88;14.13;;;15.20;99.90;;;;;;6096860;23;20098;-68
2021/09/07 05:27:38;;;;;;;18.10;14.57;;;15.10;99.90;;;;;;6122928;23;20115;-68
2021/09/07 05:30:05;;;;;;;16.00;14.40;;;15.10;99.90;;;;;;6122821;23;20449;-68
2021/09/07 05:32:30;;;;;;;16.15;13.93;;;15.10;99.90;;;;;;6097070;23;20457;-68
2021/09/07 05:34:56;;;;;;;17.65;14.55;;;15.10;99.90;;;;;;6122724;23;20018;-68
2021/09/07 05:37:22;;;;;;;14.68;12.73;;;15.20;99.90;;;;;;6123291;23;20029;-68
2021/09/07 05:39:47;;;;;;;15.65;14.05;;;15.30;99.90;;;;;;6122846;23;20057;-68
2021/09/07 05:42:13;;;;;;;14.60;13.02;;;15.30;99.90;;;;;;6122968;23;20438;-68
2021/09/07 05:44:38;;;;;;;15.30;13.77;;;15.30;99.90;;;;;;6123177;23;20359;-68
2021/09/07 05:47:05;;;;;;;16.55;14.68;;;15.30;99.90;;;;;;6123001;23;20405;-68
2021/09/07 05:49:31;;;;;;;16.92;13.75;;;15.40;99.90;;;;;;6123056;23;20017;-68
2021/09/07 05:51:57;;;;;;;15.98;13.80;;;15.50;99.90;;;;;;6097063;23;20045;-68
2021/09/07 05:54:22;;;;;;;16.48;14.18;;;15.40;99.90;;;;;;6096873;23;20025;-70
2021/09/07 05:56:48;;;;;;;16.63;14.85;;;15.50;99.90;;;;;;6096869;23;20010;-70
2021/09/07 05:59:13;;;;;;;16.45;13.70;;;15.50;99.90;;;;;;6122828;23;20093;-70
2021/09/07 06:01:39;;;;;;;15.38;13.77;;;15.50;99.90;;;;;;6123200;23;20349;-70
2021/09/07 06:04:05;;;;;;;17.63;14.45;;;15.60;99.90;;;;;;6096912;23;20224;-70
2021/09/07 06:06:30;;;;;;;16.30;14.60;;;15.60;99.90;;;;;;6096728;23;20437;-70
2021/09/07 06:08:56;;;;;;;16.35;14.48;;;15.60;99.90;;;;;;6096852;23;20022;-70
2021/09/07 06:11:22;;;;;;;16.25;13.60;;;15.70;99.90;;;;;;6123064;23;20025;-70
2021/09/07 06:13:47;;;;;;;16.15;13.93;;;15.70;99.90;;;;;;6096848;23;20018;-70
2021/09/07 06:16:13;;;;;;;15.07;13.10;;;15.70;99.90;;;;;;6072467;23;20014;-70
2021/09/07 06:18:39;;;;;;;15.30;13.32;;;15.80;99.90;;;;;;6122838;23;20057;-71
2021/09/07 06:21:04;;;;;;;14.68;13.07;;;15.90;99.90;;;;;;6123374;23;20065;-70
2021/09/07 06:23:30;;;;;;;14.75;13.20;;;16.00;99.90;;;;;;6101705;23;20068;-70
2021/09/07 06:25:58;;;;;;;15.07;13.48;;;16.00;99.90;;;;;;6126009;23;20088;-70
2021/09/07 06:28:27;;;;;;;15.88;13.27;;;16.10;99.90;;;;;;6152508;23;20302;-70
2021/09/07 06:30:53;;;;;;;15.20;12.52;;;16.10;99.90;;;;;;6101497;23;20394;-70
2021/09/07 06:33:19;;;;;;;14.40;12.60;;;16.20;99.90;;;;;;6152452;23;20090;-71
2021/09/07 06:35:45;;;;;;;14.25;12.68;;;16.30;99.90;;;;;;6152310;23;20060;-70
2021/09/07 06:38:11;;;;;;;13.93;12.43;;;16.40;99.90;;;;;;6153240;23;20018;-70
2021/09/07 06:40:37;;;;;;;15.60;12.32;;;16.50;99.90;;;;;;6154204;23;20013;-70
2021/09/07 06:43:03;;;;;;;15.18;12.52;;;16.50;99.90;;;;;;6127818;23;20116;-70
2021/09/07 06:45:29;;;;;;;14.75;12.85;;;16.60;99.90;;;;;;6153860;23;20441;-70
2021/09/07 06:47:54;;;;;;;14.18;12.20;;;16.70;99.90;;;;;;6128070;23;20056;-70
2021/09/07 06:50:20;;;;;;;14.82;13.23;;;16.80;99.90;;;;;;6154146;23;20040;-70
2021/09/07 06:52:51;;;;;;;13.35;11.30;;;17.00;99.90;;;;;;6154177;23;20049;-70
2021/09/07 06:55:20;;;;;;;14.27;12.65;;;17.10;99.90;;;;;;6152020;23;20074;-70
2021/09/07 06:57:49;;;;;;;14.25;12.45;;;17.20;99.90;;;;;;6127518;23;20053;-70
2021/09/07 07:00:18;;;;;;;16.25;12.43;;;17.30;99.90;;;;;;6153581;23;20053;-70
2021/09/07 07:02:47;;;;;;;14.82;12.30;;;17.30;99.90;;;;;;6127451;23;20052;-70
2021/09/07 07:05:13;;;;;;;12.23;11.02;;;17.40;99.90;;;;;;6127517;23;20128;-70
2021/09/07 07:07:42;;;;;;;13.60;11.52;;;17.50;99.90;;;;;;6153756;23;20020;-70
2021/09/07 07:10:08;;;;;;;14.27;12.18;;;17.50;99.90;;;;;;6154241;23;20013;-70
2021/09/07 07:12:44;;;;;;;12.88;10.95;;;17.60;99.90;;;;;;6153430;23;20056;-70
2021/09/07 07:15:13;;;;;;;13.70;11.88;;;17.70;99.90;;;;;;6127656;23;20017;-70
2021/09/07 07:17:45;;;;;;;15.20;11.70;;;17.90;99.90;;;;;;6151659;23;20029;-70
2021/09/07 07:20:11;;;;;;;14.23;11.75;;;18.00;99.90;;;;;;6153765;23;20013;-70
2021/09/07 07:22:37;;;;;;;14.55;11.43;;;18.00;99.90;;;;;;6149028;23;20014;-70
2021/09/07 07:25:07;;;;;;;14.48;11.68;;;18.10;99.90;;;;;;6127240;23;20021;-70
2021/09/07 07:27:32;;;;;;;11.88;10.63;;;18.30;99.90;;;;;;6151849;23;20021;-70
2021/09/07 07:30:03;;;;;;;12.52;10.88;;;18.50;99.90;;;;;;6126878;23;20493;-70
2021/09/07 07:32:43;;;;;;;11.90;10.65;;;18.70;99.90;;;;;;6152107;23;20076;-70
2021/09/07 07:35:12;;;;;;;12.13;10.35;;;18.90;99.90;;;;;;6127552;23;20014;-71
2021/09/07 07:37:43;;;;;;;12.68;10.95;;;19.00;99.90;;;;;;6127673;23;20582;-71
2021/09/07 07:40:10;;;;;;;15.18;12.20;;;18.90;99.90;;;;;;6153174;23;20051;-70
2021/09/07 07:42:42;;;;;;;13.85;11.57;;;18.90;99.90;;;;;;6127020;23;20097;-71
2021/09/07 07:45:12;;;;;;;14.82;10.40;;;19.00;99.90;;;;;;6153385;23;20009;-70
2021/09/07 07:47:50;;;;;;;13.07;10.52;;;19.00;99.90;;;;;;6127125;23;20045;-70
2021/09/07 07:50:24;;;;;;;23.10;11.85;;;19.10;99.90;;;;;;6152916;23;20013;-70
2021/09/07 07:52:50;;;;;;;13.07;11.68;;;19.20;99.90;;;;;;6152244;23;20016;-70
2021/09/07 07:55:18;;;;;;;14.05;11.65;;;19.30;99.90;;;;;;6153561;23;20013;-70
2021/09/07 07:57:46;;;;;;;12.90;10.50;;;19.40;99.90;;;;;;6153506;23;20018;-70
2021/09/07 08:00:15;;;;;;;18.05;12.05;;;19.50;99.90;;;;;;6127182;23;20024;-70
2021/09/07 08:02:48;;;;;;;14.48;11.98;;;19.60;99.90;;;;;;6152288;23;20009;-70
2021/09/07 08:05:16;;;;;;;14.60;11.30;;;19.60;99.90;;;;;;6153568;23;20335;-70
2021/09/07 08:07:46;;;;;;;14.60;11.93;;;19.70;99.90;;;;;;6153163;23;20021;-70
2021/09/07 08:10:14;;;;;;;12.63;11.32;;;19.60;99.90;;;;;;6152980;23;20349;-70
2021/09/07 08:12:44;;;;;;;14.07;11.75;;;19.70;99.90;;;;;;6153125;23;20314;-70
2021/09/07 08:15:20;;;;;;;19.65;12.88;;;19.90;99.90;;;;;;6152982;23;20024;-71
2021/09/07 08:17:49;;;;;;;12.63;11.32;;;20.00;99.90;;;;;;6126912;23;20013;-71
2021/09/07 08:20:38;;;;;;;13.80;12.25;;;20.10;99.90;;;;;;6126782;23;20041;-71
2021/09/07 08:23:10;;;;;;;13.98;12.20;;;20.20;99.90;;;;;;6126366;23;20024;-70
2021/09/07 08:25:35;;;;;;;15.90;11.82;;;20.30;99.90;;;;;;6151309;23;20021;-73
2021/09/07 08:28:01;;;;;;;15.52;11.90;;;20.30;99.90;;;;;;6127136;23;20532;-70
2021/09/07 08:30:26;;;;;;;14.07;11.98;;;20.30;99.90;;;;;;6126771;23;20437;-70
2021/09/07 08:32:52;;;;;;;12.45;11.15;;;20.40;99.90;;;;;;6153256;23;20030;-70
2021/09/07 08:35:18;;;;;;;13.95;11.57;;;20.60;99.90;;;;;;6153533;23;20056;-70
2021/09/07 08:37:43;;;;;;;16.48;12.20;;;20.60;99.90;;;;;;6102043;23;20492;-70
2021/09/07 08:40:10;;;;;;;15.25;12.18;;;20.60;99.90;;;;;;6153274;23;20075;-70
2021/09/07 08:42:37;;;;;;;15.55;11.80;;;20.60;99.90;;;;;;6126525;23;20017;-70
2021/09/07 08:45:07;;;;;;;13.93;10.85;;;20.70;99.90;;;;;;6126750;23;20013;-72
2021/09/07 08:47:32;;;;;;;12.73;10.60;;;20.90;99.90;;;;;;6126558;23;20471;-70
2021/09/07 08:50:01;;;;;;;12.90;11.05;;;21.00;99.90;;;;;;6102267;23;20045;-70
2021/09/07 08:52:26;;;;;;;13.50;10.98;;;21.20;99.90;;;;;;6151230;23;20028;-70
2021/09/07 08:54:52;;;;;;;12.85;10.00;;;21.30;99.90;;;;;;6127075;23;20022;-69
2021/09/07 08:57:17;;;;;;;16.55;11.30;;;21.40;99.90;;;;;;6126447;23;20017;-69
2021/09/07 08:59:43;;;;;;;11.30;9.70;;;21.50;99.90;;;;;;6126544;23;20018;-69
2021/09/07 09:02:17;;;;;;;10.90;9.80;;;21.60;99.90;;;;;;6153050;23;20092;-69
2021/09/07 09:04:45;;;;;;;15.18;10.65;;;21.70;99.90;;;;;;6153060;23;20049;-68
2021/09/07 09:07:38;;;;;;;12.38;10.85;;;21.70;99.90;;;;;;6126465;23;20014;-69
2021/09/07 09:10:04;;;;;;;12.77;9.57;;;21.80;99.90;;;;;;6122628;23;20017;-69
2021/09/07 09:12:31;;;;;;;11.18;9.95;;;21.90;99.90;;;;;;6102254;23;20013;-69
2021/09/07 09:14:58;;;;;;;11.85;10.00;;;22.00;99.90;;;;;;6152566;23;20457;-68
2021/09/07 09:17:30;;;;;;;12.23;10.73;;;22.00;99.90;;;;;;6152818;23;20454;-69
2021/09/07 09:20:06;;;;;;;10.48;9.38;;;22.10;99.90;;;;;;6126401;23;20387;-69
2021/09/07 09:22:51;;;;;;;11.25;9.82;;;22.10;99.90;;;;;;6152499;23;20283;-69
2021/09/07 09:25:22;;;;;;;9.80;8.90;;;22.20;99.90;;;;;;6126394;23;20053;-69
2021/09/07 09:27:56;;;;;;;10.85;7.90;;;22.30;99.90;;;;;;6126724;23;20018;-69
2021/09/07 09:30:42;;;;;;;10.88;8.57;;;22.50;99.50;;;;;;6126213;23;20104;-69
2021/09/07 09:33:09;;;;;;;8.73;7.82;;;22.30;96.40;;;;;;6126230;23;20013;-69
2021/09/07 09:35:44;;;;;;;10.20;9.10;;;22.40;98.80;;;;;;6101914;23;20480;-69
2021/09/07 09:38:10;;;;;;;13.15;9.30;;;22.60;99.30;;;;;;6151107;23;20333;-69
2021/09/07 09:40:36;;;;;;;11.20;9.80;;;22.60;98.40;;;;;;6126276;23;20101;-71
2021/09/07 09:43:46;;;;;;;10.95;9.85;;;22.70;99.20;;;;;;6126017;23;20021;-71
2021/09/07 09:46:25;;;;;;;10.68;8.60;;;22.60;97.30;;;;;;6146281;23;20080;-69
2021/09/07 09:49:11;;;;;;;10.57;8.27;;;22.80;98.70;;;;;;6126011;23;20022;-69
2021/09/07 09:51:37;;;;;;;15.35;10.45;;;22.90;98.50;;;;;;6126276;23;20322;-69
2021/09/07 09:54:03;;;;;;;12.35;9.73;;;22.90;95.50;;;;;;6126097;23;20029;-69
2021/09/07 09:56:29;;;;;;;11.63;9.50;;;22.90;97.10;;;;;;6152306;23;20096;-71
2021/09/07 09:58:55;;;;;;;9.32;8.30;;;23.00;97.90;;;;;;6125959;23;20063;-71
2021/09/07 10:01:21;;;;;;;8.80;7.75;;;23.00;98.50;;;;;;6126253;23;20009;-70
2021/09/07 10:03:48;;;;;;;14.05;9.85;;;23.20;98.40;;;;;;6125985;23;20391;-69
2021/09/07 10:06:17;;;;;;;11.02;9.82;;;23.10;96.80;;;;;;6126148;23;20025;-69
2021/09/07 10:08:43;;;;;;;11.73;10.15;;;23.20;97.90;;;;;;6125892;23;20060;-71
2021/09/07 10:11:14;;;;;;;11.00;9.57;;;23.10;95.90;;;;;;6126072;23;20022;-68
2021/09/07 10:13:43;;;;;;;9.18;8.18;;;23.10;97.20;;;;;;6153089;23;20388;-68
2021/09/07 10:16:13;;;;;;;11.25;8.98;;;23.20;98.70;;;;;;6154534;23;20373;-71
2021/09/07 10:18:47;;;;;;;11.43;10.23;;;23.40;98.80;;;;;;6127972;23;20413;-70
2021/09/07 10:26:37;;;;;;;11.43;8.82;;;23.70;97.30;;;;;;6127958;23;20032;-68
2021/09/07 10:29:06;;;;;;;9.80;8.80;;;23.80;96.70;;;;;;6128334;23;20047;-67
2021/09/07 10:31:46;;;;;;;9.93;8.50;;;23.90;97.40;;;;;;6127712;23;20020;-67
2021/09/07 10:34:13;;;;;;;9.70;8.80;;;24.00;97.20;;;;;;6127596;23;20026;-68
2021/09/07 10:36:57;;;;;;;10.73;9.05;;;24.00;96.00;;;;;;6153769;23;20511;-68
2021/09/07 10:39:33;;;;;;;10.00;8.70;;;23.90;95.30;;;;;;6127558;23;20016;-69
2021/09/07 10:41:59;;;;;;;9.02;8.07;;;24.00;96.30;;;;;;6127860;23;20009;-69
2021/09/07 10:44:49;;;;;;;9.20;8.10;;;24.10;96.50;;;;;;6127637;23;20013;-69
2021/09/07 10:47:16;;;;;;;9.68;8.60;;;24.10;96.60;;;;;;6115899;23;20060;-68
2021/09/07 10:49:54;;;;;;;10.15;8.40;;;24.10;96.40;;;;;;6127593;23;20357;-68
2021/09/07 10:52:27;;;;;;;12.88;8.90;;;24.20;97.00;;;;;;6127855;23;20017;-67
2021/09/07 10:54:52;;;;;;;12.00;10.10;;;24.40;96.80;;;;;;6127531;23;20354;-67
2021/09/07 10:57:43;;;;;;;9.98;8.93;;;24.40;95.60;;;;;;6154114;23;20033;-67
2021/09/07 11:00:19;;;;;;;10.05;8.75;;;24.50;96.00;;;;;;6127598;23;20020;-67
2021/09/07 11:03:17;;;;;;;10.02;8.27;;;24.50;96.40;;;;;;6127707;23;20413;-67
2021/09/07 11:05:44;;;;;;;10.35;8.15;;;24.60;95.40;;;;;;6122992;23;20079;-67
2021/09/07 11:08:35;;;;;;;10.10;8.15;;;24.70;95.20;;;;;;6127623;23;20017;-68
2021/09/07 11:11:21;;;;;;;12.50;9.43;;;24.70;95.80;;;;;;6153782;23;20013;-68
2021/09/07 11:13:46;;;;;;;28.60;11.73;;;24.80;95.60;;;;;;6153799;23;20013;-70
2021/09/07 11:16:12;;;;;;;12.55;9.68;;;24.90;95.10;;;;;;6103029;23;20056;-69
2021/09/07 11:18:39;;;;;;;12.60;9.98;;;24.90;94.70;;;;;;6153945;23;20017;-68
2021/09/07 11:21:09;;;;;;;11.88;9.43;;;24.70;93.20;;;;;;6127093;23;20450;-68
2021/09/07 11:23:36;;;;;;;75.20;18.23;;;24.90;95.10;;;;;;6153880;23;20020;-68
2021/09/07 11:26:10;;;;;;;11.48;9.52;;;25.00;94.80;;;;;;6126563;23;20479;-68
2021/09/07 11:28:36;;;;;;;11.88;9.15;;;25.00;93.90;;;;;;6127152;23;20021;-69
2021/09/07 11:31:04;;;;;;;11.95;8.70;;;25.00;94.00;;;;;;6126917;23;20369;-68
2021/09/07 11:33:34;;;;;;;10.05;8.98;;;25.10;94.40;;;;;;6153425;23;20044;-68
2021/09/07 11:36:04;;;;;;;10.95;9.40;;;25.20;94.10;;;;;;6102702;23;20294;-67
2021/09/07 11:38:34;;;;;;;12.35;10.80;;;25.30;94.70;;;;;;6152180;23;20040;-68
2021/09/07 11:41:04;;;;;;;11.65;9.98;;;25.10;92.10;;;;;;6127129;23;20024;-68
2021/09/07 11:43:33;;;;;;;9.88;8.77;;;24.90;92.70;;;;;;6127141;23;20005;-67
2021/09/07 11:46:08;;;;;;;10.85;9.75;;;24.80;92.90;;;;;;6127020;23;20045;-68
2021/09/07 11:48:34;;;;;;;13.35;10.18;;;24.90;93.90;;;;;;6127236;23;20021;-70
2021/09/07 11:51:01;;;;;;;12.50;9.50;;;24.60;92.10;;;;;;6127117;23;20048;-69
2021/09/07 11:53:26;;;;;;;10.25;8.15;;;24.50;92.50;;;;;;6153405;23;20017;-68
2021/09/07 11:55:53;;;;;;;12.13;8.77;;;24.50;94.30;;;;;;6126899;23;20022;-68
2021/09/07 11:58:25;;;;;;;9.50;8.50;;;24.60;95.20;;;;;;6127099;23;20334;-67
2021/09/07 12:01:17;;;;;;;;;;;24.60;96.00;;;;;;6127541;23;20017;-67
2021/09/07 12:03:42;;;;;;;;;;;24.70;93.20;;;;;;6147982;23;19983;-67
2021/09/07 12:06:11;;;;;;;11.30;10.10;;;24.80;95.90;;;;;;6126962;23;20550;-67
2021/09/07 12:08:48;;;;;;;11.98;8.63;;;24.80;94.30;;;;;;6127035;23;20013;-67
2021/09/07 12:11:27;;;;;;;11.68;9.27;;;24.70;93.90;;;;;;6126784;23;20018;-68
2021/09/07 12:14:14;;;;;;;10.68;9.25;;;24.70;94.20;;;;;;6127073;23;20017;-68
2021/09/07 12:16:49;;;;;;;10.25;9.25;;;24.90;95.60;;;;;;6126839;23;20017;-68
2021/09/07 12:19:20;;;;;;;12.07;9.63;;;25.10;95.40;;;;;;6126960;23;20041;-68
2021/09/07 12:21:46;;;;;;;11.52;9.98;;;25.20;94.10;;;;;;6126753;23;20047;-68
2021/09/07 12:24:15;;;;;;;10.52;9.38;;;25.10;93.90;;;;;;6126944;23;20021;-68
2021/09/07 12:26:42;;;;;;;10.88;9.77;;;25.10;94.20;;;;;;6127103;23;20057;-68
2021/09/07 12:29:17;;;;;;;11.77;9.95;;;25.10;94.30;;;;;;6153253;23;20080;-67
2021/09/07 12:31:43;;;;;;;10.45;9.35;;;25.20;94.50;;;;;;6126534;23;20036;-67
2021/09/07 12:34:09;;;;;;;14.63;10.85;;;25.20;94.90;;;;;;6153352;23;20045;-67
2021/09/07 12:36:44;;;;;;;12.63;10.02;;;25.00;93.10;;;;;;6126356;23;20017;-68
2021/09/07 12:39:10;;;;;;;12.88;9.77;;;25.00;94.90;;;;;;6126755;23;20049;-68
2021/09/07 12:41:35;;;;;;;12.95;9.50;;;25.10;95.50;;;;;;6126521;23;20020;-68